createdAt,value
2022-08-14T00:04:56.421Z,5.65
2022-08-14T00:10:49.189Z,6.28
2022-08-14T00:15:43.292Z,6.05
2022-08-14T00:20:46.334Z,6.88
2022-08-14T00:25:59.052Z,6.18
2022-08-14T00:31:09.722Z,5.90
2022-08-14T00:36:36.247Z,6.25
2022-08-14T00:41:33.938Z,5.97
2022-08-14T00:46:37.887Z,5.75
2022-08-14T00:51:41.097Z,6.88
2022-08-14T00:56:43.126Z,6.55
2022-08-14T01:01:45.483Z,5.85
2022-08-14T01:06:50.901Z,6.13
2022-08-14T01:12:02.983Z,6.15
2022-08-14T01:17:05.504Z,6.30
2022-08-14T01:22:12.904Z,7.75
2022-08-14T01:27:20.375Z,7.68
2022-08-14T01:32:24.318Z,7.45
2022-08-14T01:37:26.455Z,6.82
2022-08-14T01:42:46.054Z,8.70
2022-08-14T01:47:48.790Z,7.20
2022-08-14T01:52:59.874Z,7.15
2022-08-14T01:58:20.330Z,8.02
2022-08-14T02:03:30.267Z,9.35
2022-08-14T02:08:35.175Z,7.88
2022-08-14T02:13:38.276Z,7.85
2022-08-14T02:18:40.057Z,7.82
2022-08-14T02:23:42.960Z,9.00
2022-08-14T02:28:57.295Z,7.75
2022-08-14T02:34:26.179Z,7.70
2022-08-14T02:44:39.738Z,7.82
2022-08-14T02:49:42.830Z,8.52
2022-08-14T02:54:45.827Z,8.80
2022-08-14T02:59:50.116Z,9.75
2022-08-14T03:04:54.348Z,9.77
2022-08-14T03:10:28.221Z,9.45
2022-08-14T03:15:19.205Z,9.13
2022-08-14T03:20:23.787Z,10.30
2022-08-14T03:25:25.808Z,9.02
2022-08-14T03:30:39.601Z,9.35
2022-08-14T03:36:05.534Z,9.32
2022-08-14T03:41:07.574Z,10.70
2022-08-14T03:46:38.864Z,9.85
2022-08-14T03:51:34.099Z,10.52
2022-08-14T03:56:44.449Z,10.23
2022-08-14T04:01:53.822Z,10.18
2022-08-14T04:07:03.296Z,10.65
2022-08-14T04:12:06.363Z,10.50
2022-08-14T04:17:10.350Z,10.27
2022-08-14T04:22:14.432Z,10.23
2022-08-14T04:27:18.434Z,10.40
2022-08-14T04:32:58.926Z,11.40
2022-08-14T04:38:03.473Z,11.70
2022-08-14T04:43:38.608Z,11.32
2022-08-14T04:48:43.807Z,10.63
2022-08-14T04:53:54.590Z,11.18
2022-08-14T04:59:03.703Z,11.90
2022-08-14T05:04:05.678Z,11.07
2022-08-14T05:09:13.865Z,11.30
2022-08-14T05:14:46.953Z,11.20
2022-08-14T05:19:45.024Z,11.25
2022-08-14T05:25:04.069Z,13.05
2022-08-14T05:30:07.099Z,12.25
2022-08-14T05:35:11.548Z,11.43
2022-08-14T05:40:13.327Z,11.82
2022-08-14T05:45:17.278Z,11.38
2022-08-14T05:50:19.977Z,12.70
2022-08-14T05:55:23.367Z,12.27
2022-08-14T06:00:30.839Z,12.40
2022-08-14T06:05:39.122Z,12.40
2022-08-14T06:10:40.949Z,12.25
2022-08-14T06:15:44.845Z,12.20
2022-08-14T06:20:47.309Z,13.48
2022-08-14T06:25:52.604Z,11.88
2022-08-14T06:30:55.908Z,12.53
2022-08-14T06:35:57.913Z,12.23
2022-08-14T06:40:59.588Z,11.93
2022-08-14T06:46:03.170Z,12.93
2022-08-14T06:51:05.030Z,12.63
2022-08-14T06:56:07.372Z,12.23
2022-08-14T07:01:28.164Z,10.90
2022-08-14T07:06:46.721Z,11.88
2022-08-14T07:11:49.681Z,11.93
2022-08-14T07:16:52.539Z,11.32
2022-08-14T07:21:54.219Z,11.55
2022-08-14T07:26:55.949Z,11.30
2022-08-14T07:31:57.617Z,11.35
2022-08-14T07:37:01.181Z,11.75
2022-08-14T07:42:03.150Z,10.27
2022-08-14T07:47:05.412Z,11.10
2022-08-14T07:52:08.299Z,9.80
2022-08-14T07:57:12.475Z,8.82
2022-08-14T08:02:19.674Z,8.90
2022-08-14T08:07:29.815Z,8.60
2022-08-14T08:12:34.139Z,9.75
2022-08-14T08:17:38.634Z,9.68
2022-08-14T08:22:48.056Z,8.88
2022-08-14T08:28:08.932Z,9.00
2022-08-14T08:33:31.867Z,8.35
2022-08-14T08:39:18.620Z,9.07
2022-08-14T08:44:05.427Z,8.00
2022-08-14T08:49:07.485Z,9.02
2022-08-14T08:54:19.719Z,8.27
2022-08-14T08:59:39.797Z,8.82
2022-08-14T09:04:45.466Z,8.57
2022-08-14T09:09:59.187Z,8.18
2022-08-14T09:15:12.466Z,8.65
2022-08-14T09:20:25.898Z,7.43
2022-08-14T09:26:00.815Z,9.40
2022-08-14T09:30:57.740Z,7.75
2022-08-14T09:36:21.273Z,8.27
2022-08-14T09:42:21.537Z,7.53
2022-08-14T09:47:05.033Z,7.35
2022-08-14T09:52:32.954Z,7.43
2022-08-14T09:57:35.624Z,7.53
2022-08-14T10:02:37.711Z,6.85
2022-08-14T10:07:53.803Z,6.72
2022-08-14T10:13:08.822Z,8.15
2022-08-14T10:18:18.320Z,7.07
2022-08-14T10:23:23.172Z,6.38
2022-08-14T10:28:51.537Z,5.90
2022-08-14T10:34:04.972Z,5.70
2022-08-14T10:39:25.870Z,5.05
2022-08-14T10:44:38.610Z,4.93
2022-08-14T10:49:55.257Z,5.38
2022-08-14T10:55:14.074Z,5.00
2022-08-14T11:00:20.630Z,6.28
2022-08-14T11:05:27.097Z,4.88
2022-08-14T11:10:54.138Z,4.35
2022-08-14T11:16:00.643Z,5.22
2022-08-14T11:21:02.609Z,4.90
2022-08-14T11:26:07.154Z,4.65
2022-08-14T11:31:11.268Z,4.13
2022-08-14T11:36:18.314Z,4.00
2022-08-14T11:41:20.766Z,5.03
2022-08-14T11:46:29.516Z,4.63
2022-08-14T11:51:52.962Z,5.23
2022-08-14T11:56:55.576Z,4.70
2022-08-14T12:02:08.884Z,4.50
2022-08-14T12:07:30.659Z,4.60
2022-08-14T12:12:36.165Z,4.35
2022-08-14T12:17:53.205Z,4.50
2022-08-14T12:22:57.670Z,4.35
2022-08-14T12:28:05.900Z,5.07
2022-08-14T12:33:23.970Z,4.75
2022-08-14T12:38:37.416Z,4.07
2022-08-14T12:43:55.576Z,3.60
2022-08-14T12:49:02.306Z,4.82
2022-08-14T12:54:27.466Z,4.40
2022-08-14T12:59:37.204Z,4.43
2022-08-14T13:04:48.943Z,5.47
2022-08-14T13:09:58.361Z,4.32
2022-08-14T13:15:02.255Z,4.43
2022-08-14T13:20:23.398Z,4.55
2022-08-14T13:25:27.917Z,4.80
2022-08-14T13:30:32.036Z,5.28
2022-08-14T13:35:34.875Z,5.03
2022-08-14T13:40:36.994Z,4.75
2022-08-14T13:46:00.642Z,4.85
2022-08-14T13:51:05.741Z,4.80
2022-08-14T13:56:14.809Z,4.90
2022-08-14T14:01:42.944Z,4.85
2022-08-14T14:06:48.433Z,5.13
2022-08-14T14:11:53.064Z,4.68
2022-08-14T14:16:55.944Z,5.05
2022-08-14T14:21:58.201Z,4.72
2022-08-14T14:27:23.782Z,5.15
2022-08-14T14:32:41.728Z,5.18
2022-08-14T14:37:52.874Z,4.57
2022-08-14T14:42:57.098Z,4.63
2022-08-14T14:47:59.405Z,4.82
2022-08-14T14:53:12.989Z,5.20
2022-08-14T14:58:16.338Z,6.13
2022-08-14T15:03:22.369Z,5.28
2022-08-14T15:08:56.729Z,4.53
2022-08-14T15:13:52.954Z,5.05
2022-08-14T15:18:55.211Z,4.70
2022-08-14T15:23:56.929Z,4.85
2022-08-14T15:29:02.716Z,4.38
2022-08-14T15:34:44.604Z,5.03
2022-08-14T15:39:38.105Z,4.65
2022-08-14T15:44:43.982Z,5.47
2022-08-14T15:50:02.880Z,5.05
2022-08-14T15:55:10.545Z,5.13
2022-08-14T16:00:41.749Z,5.28
2022-08-14T16:05:46.597Z,5.10
2022-08-14T16:10:48.533Z,5.07
2022-08-14T16:15:53.119Z,4.80
2022-08-14T16:20:57.227Z,5.17
2022-08-14T16:26:02.011Z,4.90
2022-08-14T16:31:05.851Z,4.90
2022-08-14T16:36:30.409Z,5.25
2022-08-14T16:41:32.938Z,5.35
2022-08-14T16:46:43.938Z,5.18
2022-08-14T16:51:46.471Z,4.30
2022-08-14T16:56:54.825Z,5.20
2022-08-14T17:01:59.227Z,4.88
2022-08-14T17:07:03.160Z,4.80
2022-08-14T17:12:35.097Z,4.93
2022-08-14T17:17:40.090Z,5.25
2022-08-14T17:23:02.738Z,5.10
2022-08-14T17:28:52.010Z,5.78
2022-08-14T17:33:52.312Z,5.97
2022-08-14T17:39:11.979Z,5.45
2022-08-14T17:44:21.664Z,5.20
2022-08-14T17:49:32.131Z,5.70
2022-08-14T17:54:39.914Z,5.25
2022-08-14T17:59:48.545Z,5.07
2022-08-14T18:04:51.420Z,5.35
2022-08-14T18:09:59.159Z,5.72
2022-08-14T18:15:16.375Z,5.38
2022-08-14T18:21:42.213Z,5.03
2022-08-14T18:25:54.531Z,5.63
2022-08-14T18:31:21.119Z,6.30
2022-08-14T18:41:52.744Z,6.38
2022-08-14T18:47:16.101Z,6.32
2022-08-14T18:52:18.776Z,8.07
2022-08-14T18:57:20.953Z,6.70
2022-08-14T19:02:30.248Z,6.10
2022-08-14T19:07:33.946Z,5.97
2022-08-14T19:12:56.505Z,5.97
2022-08-14T19:18:15.113Z,5.40
2022-08-14T19:23:22.294Z,5.13
2022-08-14T19:28:32.030Z,5.88
2022-08-14T19:33:45.380Z,5.63
2022-08-14T19:38:51.991Z,6.07
2022-08-14T19:43:56.925Z,5.65
2022-08-14T19:48:58.923Z,5.65
2022-08-14T19:54:13.471Z,6.20
2022-08-14T19:59:21.957Z,5.68
2022-08-14T20:04:47.193Z,6.93
2022-08-14T20:11:06.716Z,6.60
2022-08-14T20:15:17.806Z,7.32
2022-08-14T20:20:31.573Z,6.80
2022-08-14T20:25:45.621Z,6.00
2022-08-14T20:31:17.646Z,5.35
2022-08-14T20:36:26.562Z,6.10
2022-08-14T20:41:28.554Z,6.05
2022-08-14T20:46:39.551Z,5.57
2022-08-14T20:51:58.802Z,7.07
2022-08-14T20:57:14.642Z,6.80
2022-08-14T21:02:34.264Z,6.35
2022-08-14T21:07:41.762Z,7.70
2022-08-14T21:13:26.331Z,7.10
2022-08-14T21:18:07.288Z,7.32
2022-08-14T21:23:11.020Z,6.00
2022-08-14T21:28:29.628Z,6.60
2022-08-14T21:33:34.263Z,7.03
2022-08-14T21:38:38.172Z,6.55
2022-08-14T21:43:39.923Z,6.82
2022-08-14T21:48:44.265Z,6.68
2022-08-14T21:53:58.175Z,7.07
2022-08-14T21:59:01.947Z,8.32
2022-08-14T22:04:33.074Z,7.43
2022-08-14T22:09:36.029Z,7.43
2022-08-14T22:14:43.189Z,7.38
2022-08-14T22:19:54.520Z,7.35
2022-08-14T22:24:59.916Z,7.00
2022-08-14T22:30:05.189Z,6.63
2022-08-14T22:35:10.335Z,7.05
2022-08-14T22:40:17.236Z,7.70
2022-08-14T22:45:36.482Z,7.13
2022-08-14T22:50:53.463Z,6.70
2022-08-14T22:55:55.630Z,7.60
2022-08-14T23:01:01.312Z,7.95
2022-08-14T23:07:02.175Z,7.32
2022-08-14T23:11:28.534Z,7.57
2022-08-14T23:16:31.274Z,8.07
2022-08-14T23:21:33.216Z,7.25
2022-08-14T23:26:48.988Z,7.57
2022-08-14T23:31:52.598Z,7.50
2022-08-14T23:36:56.516Z,7.82
2022-08-14T23:42:08.733Z,7.57
2022-08-14T23:47:25.358Z,7.90
2022-08-14T23:52:51.606Z,6.97
2022-08-14T23:57:57.918Z,7.63
